Time;durP1;ratioP1;P1;durP2;ratioP2;P2;SDS_P1;SDS_P2;PMS_P1;PMS_P2;Temp;Humidity;BMP_temperature;BMP_pressure;BME280_temperature;BME280_humidity;BME280_pressure;Samples;Min_cycle;Max_cycle;Signal;HPM_P1;HPM_P2
2022/12/20 00:01:14;;;;;;;15.60;6.30;;;8.80;99.90;;;;;;5100280;27;20127;-75
2022/12/20 00:03:41;;;;;;;16.80;6.22;;;8.90;99.90;;;;;;5100306;27;20043;-77
2022/12/20 00:06:07;;;;;;;15.90;6.22;;;8.90;99.90;;;;;;5118015;27;20508;-75
2022/12/20 00:08:36;;;;;;;16.23;5.72;;;8.90;99.90;;;;;;5135717;27;20048;-74
2022/12/20 00:11:04;;;;;;;13.63;5.70;;;8.90;99.90;;;;;;5135715;27;20090;-76
2022/12/20 00:13:31;;;;;;;17.10;6.53;;;8.90;99.90;;;;;;5135666;27;20441;-76
2022/12/20 00:16:09;;;;;;;16.83;5.85;;;8.90;99.90;;;;;;5117410;27;20034;-75
2022/12/20 00:18:35;;;;;;;14.38;5.57;;;8.90;99.90;;;;;;5118121;27;20050;-77
2022/12/20 00:21:03;;;;;;;17.98;6.20;;;8.90;99.90;;;;;;5135523;27;20082;-75
2022/12/20 00:23:29;;;;;;;14.95;5.78;;;9.00;99.90;;;;;;5117075;27;20047;-75
2022/12/20 00:26:07;;;;;;;16.92;6.47;;;9.00;99.90;;;;;;5116585;27;20126;-75
2022/12/20 00:28:34;;;;;;;18.65;5.15;;;9.10;99.90;;;;;;5116879;27;20110;-76
2022/12/20 00:31:01;;;;;;;16.95;5.72;;;9.10;99.90;;;;;;5116423;27;20055;-76
2022/12/20 00:33:27;;;;;;;14.32;5.55;;;9.10;99.90;;;;;;5099852;27;20061;-73
2022/12/20 00:35:56;;;;;;;16.65;6.00;;;9.20;99.90;;;;;;5099644;27;20152;-74
2022/12/20 00:38:23;;;;;;;16.95;5.65;;;9.20;99.90;;;;;;5134924;27;20043;-76
2022/12/20 00:41:10;;;;;;;17.17;6.47;;;9.20;99.90;;;;;;5116768;27;20040;-75
2022/12/20 00:43:36;;;;;;;14.82;5.90;;;9.20;99.90;;;;;;5099085;27;20051;-75
2022/12/20 00:46:03;;;;;;;17.63;6.28;;;9.20;99.90;;;;;;5135698;27;20449;-77
2022/12/20 00:48:30;;;;;;;14.88;5.90;;;9.20;99.90;;;;;;5116689;27;20130;-75
2022/12/20 00:51:14;;;;;;;13.98;5.15;;;9.10;99.90;;;;;;5116760;27;20047;-78
2022/12/20 00:53:40;;;;;;;14.02;5.50;;;9.10;99.90;;;;;;5116481;27;20122;-75
2022/12/20 00:56:07;;;;;;;14.50;5.50;;;9.00;99.90;;;;;;5116898;27;20107;-75
2022/12/20 00:58:35;;;;;;;15.88;5.85;;;9.00;99.90;;;;;;5117004;27;20050;-75
2022/12/20 01:01:02;;;;;;;17.52;5.53;;;9.00;99.90;;;;;;5134905;27;20035;-75
2022/12/20 01:03:28;;;;;;;13.50;5.45;;;9.00;99.90;;;;;;5134488;27;20039;-77
2022/12/20 01:05:56;;;;;;;11.88;5.55;;;9.00;99.90;;;;;;5116758;27;20054;-76
2022/12/20 01:08:23;;;;;;;14.00;4.95;;;9.00;99.90;;;;;;5116154;27;20116;-75
2022/12/20 01:11:00;;;;;;;13.43;5.50;;;9.00;99.90;;;;;;5115932;27;20134;-75
2022/12/20 01:13:25;;;;;;;;;;;9.00;99.90;;;;;;5100221;27;20055;-76
2022/12/20 01:15:51;;;;;;;16.45;5.30;;;9.00;99.90;;;;;;5134337;27;19920;-76
2022/12/20 01:18:17;;;;;;;15.57;5.47;;;9.10;99.90;;;;;;5116075;27;20051;-76
2022/12/20 01:20:43;;;;;;;14.18;4.85;;;9.10;99.90;;;;;;5134282;27;20045;-75
2022/12/20 01:23:08;;;;;;;17.48;4.82;;;9.10;99.90;;;;;;5134047;27;20039;-75
2022/12/20 01:25:35;;;;;;;12.83;5.20;;;9.10;99.90;;;;;;5099252;27;20546;-77
2022/12/20 01:28:00;;;;;;;13.40;5.05;;;9.20;99.90;;;;;;5081493;27;20371;-76
2022/12/20 01:30:26;;;;;;;13.52;5.40;;;9.20;99.90;;;;;;5115782;27;20085;-76
2022/12/20 01:32:52;;;;;;;11.02;5.18;;;9.20;99.90;;;;;;5099009;27;20450;-75
2022/12/20 01:35:18;;;;;;;15.48;5.20;;;9.20;99.90;;;;;;5115442;27;20051;-76
2022/12/20 01:37:43;;;;;;;14.90;4.88;;;9.20;99.90;;;;;;5098919;27;20047;-75
2022/12/20 01:40:09;;;;;;;20.63;6.00;;;9.30;99.90;;;;;;5115691;27;20080;-76
2022/12/20 01:42:36;;;;;;;15.23;5.72;;;9.30;99.90;;;;;;5133838;27;20047;-77
2022/12/20 01:45:04;;;;;;;14.02;5.47;;;9.30;99.90;;;;;;5133919;27;20043;-75
2022/12/20 01:47:33;;;;;;;14.48;5.32;;;9.30;99.90;;;;;;5116204;27;20046;-75
2022/12/20 01:50:01;;;;;;;12.88;4.07;;;9.30;99.90;;;;;;5116121;27;20042;-75
2022/12/20 01:52:39;;;;;;;13.73;4.55;;;9.30;99.90;;;;;;5116145;27;20133;-75
2022/12/20 01:55:05;;;;;;;13.02;4.70;;;9.30;99.90;;;;;;5134565;27;20104;-74
2022/12/20 01:57:37;;;;;;;12.65;4.95;;;9.40;99.90;;;;;;5115465;27;20463;-75
2022/12/20 02:00:05;;;;;;;12.52;4.80;;;9.40;99.90;;;;;;5134263;27;20046;-76
2022/12/20 02:02:32;;;;;;;12.10;5.10;;;9.40;99.90;;;;;;5098858;27;20240;-76
2022/12/20 02:04:58;;;;;;;13.63;5.45;;;9.50;99.90;;;;;;5115447;27;20054;-75
2022/12/20 02:07:28;;;;;;;13.00;4.60;;;9.40;99.90;;;;;;5115087;27;20054;-75
2022/12/20 02:09:55;;;;;;;11.30;4.95;;;9.50;99.90;;;;;;5098420;27;20049;-77
2022/12/20 02:12:28;;;;;;;15.77;4.65;;;9.50;99.90;;;;;;5114906;27;20122;-77
2022/12/20 02:15:06;;;;;;;12.00;4.60;;;9.50;99.90;;;;;;5114632;27;20436;-77
2022/12/20 02:17:37;;;;;;;11.65;5.00;;;9.50;99.90;;;;;;5115837;27;20047;-75
2022/12/20 02:20:24;;;;;;;12.15;4.93;;;9.60;99.90;;;;;;5133457;27;20099;-74
2022/12/20 02:22:59;;;;;;;;;;;9.60;99.90;;;;;;5098636;28;20046;-76
2022/12/20 02:25:59;;;;;;;14.98;4.70;;;9.60;99.90;;;;;;5133242;27;19923;-76
2022/12/20 02:28:50;;;;;;;11.02;4.20;;;9.60;99.90;;;;;;5133002;28;20043;-77
2022/12/20 02:31:19;;;;;;;13.57;4.50;;;9.60;99.90;;;;;;5114185;28;20055;-75
2022/12/20 02:33:47;;;;;;;14.07;4.65;;;9.70;99.90;;;;;;5098014;28;20053;-76
2022/12/20 02:36:16;;;;;;;15.60;4.95;;;9.70;99.90;;;;;;5133198;28;20043;-76
2022/12/20 02:38:43;;;;;;;18.05;5.78;;;9.70;99.90;;;;;;5133285;28;20116;-75
2022/12/20 02:41:31;;;;;;;11.07;4.35;;;9.70;99.90;;;;;;5098177;28;20051;-80
2022/12/20 02:46:50;;;;;;;12.32;4.85;;;9.60;99.90;;;;;;5114715;28;20077;-75
2022/12/20 02:49:20;;;;;;;12.73;4.40;;;9.60;99.90;;;;;;5098592;28;20538;-75
2022/12/20 02:51:48;;;;;;;12.07;4.65;;;9.50;99.90;;;;;;5115120;28;20090;-76
2022/12/20 02:54:15;;;;;;;14.38;5.03;;;9.50;99.90;;;;;;5134244;28;20118;-74
2022/12/20 02:57:17;;;;;;;14.77;5.22;;;9.50;99.90;;;;;;5114803;28;20035;-73
2022/12/20 03:00:00;;;;;;;13.75;4.97;;;9.50;99.90;;;;;;5082444;28;20064;-76
2022/12/20 03:02:28;;;;;;;14.40;5.32;;;9.60;99.90;;;;;;5097726;28;20055;-79
2022/12/20 03:04:54;;;;;;;;;;;9.50;99.90;;;;;;5081022;28;20082;-78
2022/12/20 03:07:20;;;;;;;19.10;5.85;;;9.40;99.90;;;;;;5136824;27;19941;-79
2022/12/20 03:09:45;;;;;;;15.02;5.55;;;9.40;99.90;;;;;;5137404;27;20054;-80
2022/12/20 03:12:14;;;;;;;11.25;4.70;;;9.40;99.90;;;;;;5102570;27;20371;-77
2022/12/20 03:14:41;;;;;;;13.57;5.65;;;9.30;99.90;;;;;;5119264;27;20105;-76
2022/12/20 03:17:07;;;;;;;15.40;5.45;;;9.30;99.90;;;;;;5102196;27;20043;-78
2022/12/20 03:19:34;;;;;;;14.80;5.38;;;9.30;99.90;;;;;;5118959;27;20487;-79
2022/12/20 03:22:00;;;;;;;13.82;5.03;;;9.20;99.90;;;;;;5137812;27;20107;-80
2022/12/20 03:24:25;;;;;;;16.15;5.18;;;9.30;99.90;;;;;;5137409;27;20092;-80
2022/12/20 03:26:51;;;;;;;11.50;5.13;;;9.30;99.90;;;;;;5137956;27;20359;-79
2022/12/20 03:29:17;;;;;;;13.52;5.60;;;9.20;99.90;;;;;;5120210;27;20413;-78
2022/12/20 03:31:42;;;;;;;10.63;4.45;;;9.30;99.90;;;;;;5118577;27;20058;-76
2022/12/20 03:34:08;;;;;;;16.67;5.47;;;9.20;99.90;;;;;;5136803;27;20054;-76
2022/12/20 03:36:34;;;;;;;14.50;5.75;;;9.20;99.90;;;;;;5101042;27;20479;-75
2022/12/20 03:39:00;;;;;;;13.63;5.38;;;9.20;99.90;;;;;;5136700;27;20050;-76
2022/12/20 03:41:32;;;;;;;13.43;5.45;;;9.30;99.90;;;;;;5136615;27;20090;-77
2022/12/20 03:43:57;;;;;;;13.82;5.25;;;9.30;99.90;;;;;;5137159;27;20087;-75
2022/12/20 03:46:23;;;;;;;15.15;6.15;;;9.30;99.90;;;;;;5136506;27;20078;-77
2022/12/20 03:48:49;;;;;;;14.90;5.60;;;9.20;99.90;;;;;;5118202;27;20435;-76
2022/12/20 03:51:14;;;;;;;11.70;5.05;;;9.30;99.90;;;;;;5118330;27;20355;-76
2022/12/20 03:53:40;;;;;;;13.75;5.28;;;9.40;99.90;;;;;;5118080;27;20042;-76
2022/12/20 03:56:06;;;;;;;15.35;5.38;;;9.30;99.90;;;;;;5118168;27;20035;-77
2022/12/20 03:58:31;;;;;;;14.07;5.15;;;9.30;99.90;;;;;;5136182;27;20047;-77
2022/12/20 04:00:57;;;;;;;13.05;5.57;;;9.30;99.90;;;;;;5117970;27;20195;-79
2022/12/20 04:03:23;;;;;;;22.27;5.85;;;9.30;99.90;;;;;;5117873;27;20100;-76
2022/12/20 04:05:49;;;;;;;15.95;7.15;;;9.30;99.90;;;;;;5100914;27;20104;-80
2022/12/20 04:08:14;;;;;;;15.85;5.90;;;9.30;99.90;;;;;;5118544;27;20082;-77
2022/12/20 04:13:24;;;;;;;19.80;6.63;;;9.30;99.90;;;;;;5136384;27;20078;-78
2022/12/20 04:15:50;;;;;;;14.80;5.82;;;9.30;99.90;;;;;;5101478;27;20391;-75
2022/12/20 04:18:15;;;;;;;15.48;5.60;;;9.30;99.90;;;;;;5138558;27;20084;-78
2022/12/20 04:20:41;;;;;;;17.85;6.15;;;9.30;99.90;;;;;;5120018;27;20043;-78
2022/12/20 04:23:07;;;;;;;16.02;5.82;;;9.20;99.90;;;;;;5101448;27;20101;-79
2022/12/20 04:25:32;;;;;;;20.80;6.22;;;9.30;99.90;;;;;;5136155;27;20043;-76
2022/12/20 04:27:58;;;;;;;15.50;5.55;;;9.30;99.90;;;;;;5136266;27;20050;-79
2022/12/20 04:30:24;;;;;;;16.83;5.80;;;9.30;99.90;;;;;;5135928;27;20046;-78
2022/12/20 04:32:53;;;;;;;14.98;5.22;;;9.30;99.90;;;;;;5113633;28;20056;-75
2022/12/20 04:35:19;;;;;;;15.80;5.75;;;9.40;99.90;;;;;;5098354;28;20466;-77
2022/12/20 04:37:46;;;;;;;14.73;6.00;;;9.30;99.90;;;;;;5115880;28;20055;-79
2022/12/20 04:40:12;;;;;;;15.23;5.50;;;9.30;99.90;;;;;;5114011;28;20051;-78
2022/12/20 04:42:38;;;;;;;15.07;5.40;;;9.30;99.90;;;;;;5096920;28;20055;-79
2022/12/20 04:45:04;;;;;;;15.55;5.32;;;9.40;99.90;;;;;;5113781;28;20048;-78
2022/12/20 04:47:30;;;;;;;19.63;5.80;;;9.40;99.90;;;;;;5114321;28;20418;-76
2022/12/20 04:49:55;;;;;;;15.50;5.28;;;9.50;99.90;;;;;;5115312;28;20131;-77
2022/12/20 04:55:05;;;;;;;12.82;5.15;;;9.50;99.90;;;;;;5115432;28;20052;-75
2022/12/20 04:57:31;;;;;;;15.98;5.82;;;9.50;99.90;;;;;;5113480;28;20073;-80
2022/12/20 04:59:57;;;;;;;13.57;5.25;;;9.60;99.90;;;;;;5114710;28;20123;-80
2022/12/20 05:02:22;;;;;;;13.95;5.30;;;9.70;99.90;;;;;;5114686;28;20427;-78
2022/12/20 05:04:48;;;;;;;11.27;4.57;;;9.70;99.90;;;;;;5113674;28;20087;-77
2022/12/20 05:07:14;;;;;;;13.75;5.00;;;9.80;99.90;;;;;;5114447;28;20039;-78
2022/12/20 05:09:39;;;;;;;14.70;4.80;;;9.80;99.90;;;;;;5113438;28;20039;-78
2022/12/20 05:12:05;;;;;;;13.35;4.97;;;9.80;99.90;;;;;;5114623;28;20044;-77
2022/12/20 05:14:31;;;;;;;16.92;4.93;;;9.80;99.90;;;;;;5112993;28;20051;-77
2022/12/20 05:16:57;;;;;;;11.48;5.43;;;9.80;99.90;;;;;;5114445;28;20039;-75
2022/12/20 05:19:22;;;;;;;13.07;4.75;;;9.90;99.90;;;;;;5113096;28;20387;-77
2022/12/20 05:27:16;;;;;;;11.35;5.00;;;9.90;99.90;;;;;;5098453;28;20043;-79
2022/12/20 05:29:42;;;;;;;10.55;4.32;;;10.00;99.90;;;;;;5112677;28;20047;-79
2022/12/20 05:32:08;;;;;;;12.30;4.68;;;10.00;99.90;;;;;;5095588;28;20059;-76
2022/12/20 05:34:33;;;;;;;14.00;4.35;;;10.00;99.90;;;;;;5114127;28;20081;-79
2022/12/20 05:36:59;;;;;;;15.02;4.35;;;10.00;99.90;;;;;;5113946;28;20146;-77
2022/12/20 05:39:25;;;;;;;18.58;5.88;;;10.00;99.90;;;;;;5114116;28;20047;-80
2022/12/20 05:41:52;;;;;;;12.00;3.90;;;10.00;99.90;;;;;;5113780;28;20047;-77
2022/12/20 05:44:19;;;;;;;13.65;4.70;;;10.00;99.90;;;;;;5113941;28;20051;-80
2022/12/20 05:46:44;;;;;;;11.38;4.22;;;10.10;99.90;;;;;;5114064;28;20043;-79
2022/12/20 05:49:10;;;;;;;12.85;4.47;;;10.10;99.90;;;;;;5113869;28;20391;-78
2022/12/20 05:51:36;;;;;;;13.40;4.65;;;10.20;99.90;;;;;;5113820;28;20035;-78
2022/12/20 05:54:02;;;;;;;15.27;5.00;;;10.20;99.90;;;;;;5113686;28;20047;-79
2022/12/20 05:56:27;;;;;;;13.32;4.25;;;10.10;99.90;;;;;;5112626;28;20046;-83
2022/12/20 05:58:53;;;;;;;10.65;4.47;;;10.20;99.90;;;;;;5112580;28;20126;-76
2022/12/20 06:01:19;;;;;;;12.02;4.47;;;10.20;99.90;;;;;;5113716;28;20051;-81
2022/12/20 06:03:44;;;;;;;15.13;4.53;;;10.20;99.90;;;;;;5112335;28;20062;-81
2022/12/20 06:06:11;;;;;;;10.73;4.50;;;10.20;99.90;;;;;;5113718;28;20046;-80
2022/12/20 06:08:36;;;;;;;13.73;4.93;;;10.20;99.90;;;;;;5113497;28;20172;-78
2022/12/20 06:11:03;;;;;;;11.18;4.35;;;10.30;99.90;;;;;;5079787;28;20083;-79
2022/12/20 06:13:30;;;;;;;13.85;4.20;;;10.20;99.90;;;;;;5112773;28;20044;-77
2022/12/20 06:15:55;;;;;;;12.10;4.63;;;10.20;99.90;;;;;;5113738;28;20122;-79
2022/12/20 06:18:21;;;;;;;13.68;5.03;;;10.30;99.90;;;;;;5113222;28;20499;-79
2022/12/20 06:20:51;;;;;;;14.68;5.07;;;10.40;99.90;;;;;;5113469;28;20119;-79
2022/12/20 06:23:18;;;;;;;12.85;4.78;;;10.40;99.90;;;;;;5113563;28;20047;-78
2022/12/20 06:25:45;;;;;;;14.88;5.63;;;10.40;99.90;;;;;;5112420;28;20047;-79
2022/12/20 06:28:11;;;;;;;13.47;5.27;;;10.30;99.90;;;;;;5114030;28;20048;-80
2022/12/20 06:30:36;;;;;;;12.80;5.20;;;10.20;99.90;;;;;;5119153;28;20123;-80
2022/12/20 06:33:03;;;;;;;13.82;5.30;;;10.20;99.90;;;;;;5137080;27;20066;-78
2022/12/20 06:35:29;;;;;;;16.40;5.63;;;10.20;99.90;;;;;;5135815;28;20043;-77
2022/12/20 06:37:55;;;;;;;10.37;4.50;;;10.20;99.90;;;;;;5115839;28;20057;-78
2022/12/20 06:40:21;;;;;;;13.18;4.70;;;10.20;99.90;;;;;;5115991;27;20289;-78
2022/12/20 06:42:49;;;;;;;15.00;5.32;;;10.20;99.90;;;;;;5119520;27;20158;-77
2022/12/20 06:45:15;;;;;;;11.23;4.88;;;10.20;99.90;;;;;;5137845;27;20151;-76
2022/12/20 06:47:41;;;;;;;15.10;7.18;;;10.10;99.90;;;;;;5138016;27;20136;-78
2022/12/20 06:50:07;;;;;;;16.38;5.43;;;10.10;99.90;;;;;;5138152;27;20042;-75
2022/12/20 06:52:33;;;;;;;13.00;5.63;;;10.00;99.90;;;;;;5119436;27;20054;-76
2022/12/20 06:54:58;;;;;;;17.85;5.57;;;10.00;99.90;;;;;;5137597;27;20035;-77
2022/12/20 06:57:24;;;;;;;14.82;6.03;;;10.00;99.90;;;;;;5119684;27;20054;-79
2022/12/20 06:59:50;;;;;;;18.05;6.40;;;9.90;99.90;;;;;;5137567;27;20198;-77
2022/12/20 07:02:16;;;;;;;15.15;6.90;;;9.90;99.90;;;;;;5102120;27;20047;-78
2022/12/20 07:04:41;;;;;;;19.25;6.38;;;9.90;99.90;;;;;;5119675;27;20447;-79
2022/12/20 07:07:07;;;;;;;17.25;6.15;;;10.00;99.90;;;;;;5118651;27;20055;-78
2022/12/20 07:09:33;;;;;;;14.10;5.43;;;10.00;99.90;;;;;;5102178;27;20100;-78
2022/12/20 07:11:59;;;;;;;18.40;6.18;;;10.00;99.90;;;;;;5118540;27;20039;-79
2022/12/20 07:14:24;;;;;;;16.02;6.75;;;10.00;99.90;;;;;;5102609;27;20073;-81
2022/12/20 07:16:50;;;;;;;16.85;6.03;;;10.10;99.90;;;;;;5138228;27;20035;-78
2022/12/20 07:19:16;;;;;;;13.52;6.10;;;10.10;99.90;;;;;;5137997;27;20478;-77
2022/12/20 07:21:42;;;;;;;16.77;6.50;;;10.00;99.90;;;;;;5137130;27;20335;-78
2022/12/20 07:24:08;;;;;;;15.27;5.90;;;10.00;99.90;;;;;;5137316;27;20074;-81
2022/12/20 07:26:34;;;;;;;16.10;6.90;;;10.00;99.90;;;;;;5137614;27;20139;-77
2022/12/20 07:29:00;;;;;;;14.63;6.28;;;10.00;99.90;;;;;;5137424;27;20488;-76
2022/12/20 07:31:26;;;;;;;15.82;5.93;;;10.10;99.90;;;;;;5136963;27;20047;-84
2022/12/20 07:33:52;;;;;;;20.85;6.15;;;10.10;99.90;;;;;;5137188;27;20051;-77
2022/12/20 07:36:18;;;;;;;15.38;6.47;;;10.10;99.90;;;;;;5118819;27;20095;-76
2022/12/20 07:38:43;;;;;;;16.48;6.05;;;10.10;99.90;;;;;;5137718;27;20066;-78
2022/12/20 07:41:12;;;;;;;19.40;6.43;;;10.10;99.90;;;;;;5137009;27;20039;-78
2022/12/20 07:43:38;;;;;;;11.20;5.45;;;10.10;99.90;;;;;;5101276;27;20051;-79
2022/12/20 07:46:05;;;;;;;13.97;5.37;;;10.10;99.90;;;;;;5136825;27;20126;-79
2022/12/20 07:48:31;;;;;;;16.00;5.47;;;10.10;99.90;;;;;;5101213;27;20118;-78
2022/12/20 07:51:07;;;;;;;15.43;5.35;;;10.10;99.90;;;;;;5118567;27;20075;-79
2022/12/20 07:53:37;;;;;;;17.27;5.97;;;10.00;99.90;;;;;;5136598;27;20115;-77
2022/12/20 07:56:06;;;;;;;13.23;5.07;;;10.10;99.90;;;;;;5137074;27;20043;-79
2022/12/20 07:58:34;;;;;;;14.88;5.85;;;10.00;99.90;;;;;;5117773;27;20051;-79
2022/12/20 08:01:01;;;;;;;14.23;5.45;;;10.10;99.90;;;;;;5101632;27;20047;-79
2022/12/20 08:03:36;;;;;;;16.08;5.55;;;10.00;99.90;;;;;;5118212;27;20058;-79
2022/12/20 08:06:04;;;;;;;16.70;6.22;;;10.10;99.90;;;;;;5136509;27;20114;-79
2022/12/20 08:08:39;;;;;;;16.92;5.25;;;10.10;99.90;;;;;;5118226;27;20051;-82
2022/12/20 08:11:07;;;;;;;13.32;5.60;;;10.10;99.90;;;;;;5136984;27;20058;-79
2022/12/20 08:13:33;;;;;;;12.93;5.45;;;10.10;99.90;;;;;;5101275;27;20579;-78
2022/12/20 08:16:00;;;;;;;13.25;5.70;;;10.00;99.90;;;;;;5118042;27;20071;-77
2022/12/20 08:18:26;;;;;;;11.85;5.22;;;10.00;99.90;;;;;;5118764;27;20100;-79
2022/12/20 08:20:51;;;;;;;14.90;5.70;;;10.00;99.90;;;;;;5084573;27;20051;-77
2022/12/20 08:23:18;;;;;;;16.85;5.28;;;10.10;99.90;;;;;;5117637;27;20043;-78
2022/12/20 08:25:44;;;;;;;21.25;5.90;;;10.00;99.90;;;;;;5136084;27;20043;-78
2022/12/20 08:28:10;;;;;;;16.45;5.80;;;10.10;99.90;;;;;;5117765;27;20130;-80
2022/12/20 08:30:36;;;;;;;17.13;5.30;;;10.00;99.90;;;;;;5117723;27;20142;-81
2022/12/20 08:33:02;;;;;;;13.50;5.40;;;10.00;99.90;;;;;;5117223;27;20566;-76
2022/12/20 08:35:28;;;;;;;17.52;6.95;;;10.00;99.90;;;;;;5136600;27;20047;-76
2022/12/20 08:37:54;;;;;;;16.15;5.72;;;10.00;99.90;;;;;;5136183;27;20503;-78
2022/12/20 08:40:20;;;;;;;12.45;4.90;;;10.00;99.90;;;;;;5136040;27;20047;-79
2022/12/20 08:42:46;;;;;;;13.43;5.28;;;9.90;99.90;;;;;;5104570;27;20130;-75
2022/12/20 08:45:12;;;;;;;15.52;5.10;;;9.90;99.90;;;;;;5120268;27;20046;-77
2022/12/20 08:47:38;;;;;;;13.77;5.38;;;9.90;99.90;;;;;;5136518;27;20046;-77
2022/12/20 08:50:05;;;;;;;14.77;5.40;;;10.00;99.90;;;;;;5136103;27;20047;-76
2022/12/20 08:52:30;;;;;;;13.32;5.57;;;10.00;99.90;;;;;;5100564;27;20058;-79
2022/12/20 08:54:56;;;;;;;16.05;5.40;;;10.00;99.90;;;;;;5117713;27;20051;-78
2022/12/20 08:57:22;;;;;;;16.42;5.90;;;10.00;99.90;;;;;;5135860;27;20173;-78
2022/12/20 08:59:48;;;;;;;18.52;5.90;;;9.90;99.90;;;;;;5116918;27;20372;-76
2022/12/20 09:02:13;;;;;;;11.60;4.93;;;10.00;99.90;;;;;;5100217;27;20147;-79
2022/12/20 09:04:39;;;;;;;17.23;5.07;;;10.00;99.90;;;;;;5116001;27;20043;-77
2022/12/20 09:07:05;;;;;;;20.35;5.03;;;10.00;99.90;;;;;;5116973;27;20057;-77
2022/12/20 09:09:31;;;;;;;15.10;5.22;;;10.00;99.90;;;;;;5099766;27;20071;-80
2022/12/20 09:11:56;;;;;;;14.25;5.03;;;10.10;99.90;;;;;;5135370;27;20478;-78
2022/12/20 09:14:23;;;;;;;12.80;4.80;;;10.10;99.90;;;;;;5135506;27;20074;-79
2022/12/20 09:16:48;;;;;;;10.17;5.13;;;10.10;99.90;;;;;;5099862;27;20082;-80
2022/12/20 09:19:14;;;;;;;11.90;4.88;;;10.10;99.90;;;;;;5134780;27;20046;-77
2022/12/20 09:21:40;;;;;;;14.98;5.03;;;10.10;99.90;;;;;;5116361;27;20054;-79
2022/12/20 09:24:09;;;;;;;13.23;5.53;;;10.10;99.90;;;;;;5134944;27;20039;-80
2022/12/20 09:26:35;;;;;;;14.65;4.22;;;10.10;99.90;;;;;;5098992;27;20395;-81
2022/12/20 09:29:01;;;;;;;13.70;4.80;;;10.10;99.90;;;;;;5116501;27;20047;-80
2022/12/20 09:31:27;;;;;;;14.00;4.30;;;10.20;99.90;;;;;;5135362;27;20137;-79
2022/12/20 09:33:57;;;;;;;13.90;4.93;;;10.20;99.90;;;;;;5099476;27;20055;-77
2022/12/20 09:36:25;;;;;;;14.02;4.97;;;10.20;99.90;;;;;;5116203;27;20062;-76
2022/12/20 09:38:51;;;;;;;17.83;5.32;;;10.20;99.90;;;;;;5115963;27;20082;-80
2022/12/20 09:41:36;;;;;;;9.25;4.05;;;10.10;99.90;;;;;;5100078;27;20043;-79
2022/12/20 09:44:14;;;;;;;11.57;4.88;;;10.20;99.90;;;;;;5115869;27;20058;-79
2022/12/20 09:46:41;;;;;;;13.52;4.90;;;10.20;99.90;;;;;;5133978;27;20042;-77
2022/12/20 09:49:14;;;;;;;12.77;5.03;;;10.20;99.90;;;;;;5117077;27;20104;-75
2022/12/20 09:52:01;;;;;;;11.30;4.07;;;10.10;99.90;;;;;;5134713;27;20111;-76
2022/12/20 09:55:04;;;;;;;9.30;4.35;;;10.10;99.90;;;;;;5134372;27;20050;-77
2022/12/20 09:57:42;;;;;;;14.35;5.10;;;10.10;99.90;;;;;;5134077;27;20050;-78
2022/12/20 10:00:13;;;;;;;17.38;4.80;;;10.10;99.90;;;;;;5134049;27;20127;-77
2022/12/20 10:02:39;;;;;;;11.13;4.75;;;10.00;99.90;;;;;;5116915;27;20494;-79
2022/12/20 10:05:14;;;;;;;16.73;5.30;;;10.00;99.90;;;;;;5116053;27;20054;-77
2022/12/20 10:08:01;;;;;;;12.98;4.90;;;10.00;99.90;;;;;;5134247;27;20304;-81
2022/12/20 10:10:51;;;;;;;15.07;4.53;;;10.00;99.90;;;;;;5134424;27;20071;-78
2022/12/20 10:13:55;;;;;;;13.52;4.90;;;9.90;99.90;;;;;;5115645;27;20100;-77
2022/12/20 10:16:38;;;;;;;19.52;4.97;;;9.80;99.90;;;;;;5054005;28;20040;-78
2022/12/20 10:19:43;;;;;;;13.57;4.63;;;9.80;99.90;;;;;;5127561;27;20091;-76
2022/12/20 10:22:27;;;;;;;18.92;5.43;;;9.80;99.90;;;;;;5134634;27;20039;-78
2022/12/20 10:25:12;;;;;;;14.63;5.97;;;9.80;99.90;;;;;;5135141;27;20051;-76
2022/12/20 10:27:43;;;;;;;14.50;5.43;;;9.80;99.90;;;;;;5134645;27;20163;-79
2022/12/20 10:30:21;;;;;;;13.88;4.85;;;9.80;99.90;;;;;;5099097;28;20065;-77
2022/12/20 10:32:50;;;;;;;19.00;5.05;;;9.80;99.90;;;;;;5115777;28;20096;-76
2022/12/20 10:35:22;;;;;;;18.50;5.63;;;9.80;99.90;;;;;;5117314;28;20062;-79
2022/12/20 10:37:58;;;;;;;13.52;5.18;;;9.80;99.90;;;;;;5100019;28;20047;-77
2022/12/20 10:40:35;;;;;;;15.85;5.70;;;9.80;99.90;;;;;;5134598;28;20069;-77
2022/12/20 10:43:03;;;;;;;14.57;5.75;;;9.80;99.90;;;;;;5099824;28;20047;-78
2022/12/20 10:45:38;;;;;;;13.88;5.28;;;9.80;99.90;;;;;;5134750;28;20047;-80
2022/12/20 10:48:29;;;;;;;14.00;5.10;;;9.80;99.90;;;;;;5099215;28;20132;-79
2022/12/20 10:51:16;;;;;;;17.15;5.88;;;9.80;99.90;;;;;;5135709;28;20043;-76
2022/12/20 10:53:53;;;;;;;15.43;5.38;;;9.80;99.90;;;;;;5116286;28;20059;-76
2022/12/20 10:56:23;;;;;;;17.77;5.65;;;9.80;99.90;;;;;;5101560;28;20424;-77
2022/12/20 10:59:16;;;;;;;16.38;6.00;;;9.80;99.90;;;;;;5121994;28;20035;-78
2022/12/20 11:01:47;;;;;;;17.52;5.88;;;9.90;99.90;;;;;;5109240;28;20503;-77
2022/12/20 11:04:21;;;;;;;11.82;4.47;;;9.90;99.90;;;;;;5115846;28;20467;-77
2022/12/20 11:06:47;;;;;;;12.00;4.65;;;10.00;99.90;;;;;;5115065;28;20047;-76
2022/12/20 11:09:24;;;;;;;14.40;5.35;;;10.00;99.90;;;;;;5114965;28;20047;-78
2022/12/20 11:11:56;;;;;;;13.57;4.93;;;10.00;99.90;;;;;;5133353;28;20054;-76
2022/12/20 11:14:22;;;;;;;12.85;4.50;;;10.00;99.90;;;;;;5134068;28;20043;-76
2022/12/20 11:16:50;;;;;;;15.88;5.55;;;10.00;99.90;;;;;;5134078;28;20100;-81
2022/12/20 11:19:25;;;;;;;13.98;5.25;;;10.10;99.90;;;;;;5133742;28;20051;-78
2022/12/20 11:22:18;;;;;;;15.50;4.68;;;10.10;99.90;;;;;;5134006;28;20465;-74
2022/12/20 11:25:04;;;;;;;12.55;4.55;;;10.10;99.90;;;;;;5115651;28;20120;-75
2022/12/20 11:27:44;;;;;;;17.67;6.07;;;10.10;99.90;;;;;;5124307;27;20137;-79
2022/12/20 11:30:20;;;;;;;14.20;4.25;;;10.10;99.90;;;;;;5118688;27;20288;-75
2022/12/20 11:32:53;;;;;;;16.13;5.50;;;10.10;99.90;;;;;;5118699;27;20142;-78
2022/12/20 11:35:47;;;;;;;16.00;5.05;;;10.20;99.90;;;;;;5102374;27;20130;-75
2022/12/20 11:38:31;;;;;;;17.58;5.15;;;10.20;99.90;;;;;;5094930;27;20055;-75
2022/12/20 11:41:08;;;;;;;13.68;5.25;;;10.10;99.90;;;;;;5119243;27;20382;-76
2022/12/20 11:43:58;;;;;;;16.90;5.40;;;10.10;99.90;;;;;;5136784;27;20174;-75
2022/12/20 11:47:01;;;;;;;12.70;4.95;;;10.10;99.90;;;;;;5136735;27;20065;-74
2022/12/20 11:49:40;;;;;;;12.50;4.10;;;10.10;99.90;;;;;;5137579;27;20499;-76
2022/12/20 11:52:31;;;;;;;14.95;5.03;;;10.10;99.90;;;;;;5102027;27;20043;-75
2022/12/20 11:55:29;;;;;;;16.05;5.20;;;10.10;99.90;;;;;;5118278;27;20046;-76
2022/12/20 11:58:04;;;;;;;15.25;5.07;;;10.10;99.90;;;;;;5105849;27;20101;-76
2022/12/20 12:00:34;;;;;;;16.85;5.85;;;10.10;99.90;;;;;;5136604;27;20110;-75
2022/12/20 12:03:09;;;;;;;18.60;5.78;;;10.10;99.90;;;;;;5084706;27;20054;-76
2022/12/20 12:05:43;;;;;;;13.05;5.07;;;10.10;99.90;;;;;;5118654;27;20055;-79
2022/12/20 12:08:19;;;;;;;15.20;5.82;;;10.10;99.90;;;;;;5136129;27;20051;-77
2022/12/20 12:11:13;;;;;;;15.60;5.70;;;10.00;99.90;;;;;;5136211;27;20043;-76
2022/12/20 12:13:41;;;;;;;17.30;6.70;;;10.00;99.90;;;;;;5117128;27;20059;-75
2022/12/20 12:16:19;;;;;;;17.77;5.20;;;10.00;99.90;;;;;;5101442;27;20039;-76
2022/12/20 12:18:45;;;;;;;14.32;5.40;;;10.00;99.90;;;;;;5118344;27;20383;-78
2022/12/20 12:21:27;;;;;;;13.75;5.55;;;10.00;99.90;;;;;;5100665;27;20062;-76
2022/12/20 12:24:07;;;;;;;16.25;5.90;;;10.00;99.90;;;;;;5100587;27;20039;-76
2022/12/20 12:26:39;;;;;;;13.50;5.57;;;10.10;99.90;;;;;;5136471;27;20070;-76
2022/12/20 12:29:08;;;;;;;16.70;7.32;;;10.10;99.90;;;;;;5100629;27;20133;-77
2022/12/20 12:31:54;;;;;;;14.35;6.00;;;10.10;99.90;;;;;;5135862;27;20051;-77
2022/12/20 12:34:32;;;;;;;16.17;6.88;;;10.10;99.90;;;;;;5135203;27;20058;-78
2022/12/20 12:37:19;;;;;;;15.13;6.65;;;10.00;99.90;;;;;;5118168;27;20386;-80
2022/12/20 12:40:03;;;;;;;15.77;7.30;;;10.10;99.90;;;;;;5135151;27;20050;-78
2022/12/20 12:42:57;;;;;;;18.40;6.80;;;10.10;99.90;;;;;;5117553;27;20051;-76
2022/12/20 12:45:23;;;;;;;19.48;6.75;;;10.10;99.90;;;;;;5135332;27;20428;-79
2022/12/20 12:48:01;;;;;;;15.23;6.20;;;10.10;99.90;;;;;;5099955;27;20039;-79
2022/12/20 12:50:32;;;;;;;16.13;6.60;;;10.10;99.90;;;;;;5135998;27;20051;-75
2022/12/20 12:53:26;;;;;;;16.15;6.95;;;10.10;99.90;;;;;;5117250;27;20047;-77
2022/12/20 12:55:53;;;;;;;16.77;6.85;;;10.10;99.90;;;;;;5135202;27;20047;-75
2022/12/20 12:58:21;;;;;;;20.88;7.35;;;10.10;99.90;;;;;;5134949;27;20122;-77
2022/12/20 13:00:49;;;;;;;22.70;9.68;;;10.10;99.90;;;;;;5134949;27;20047;-75
2022/12/20 13:03:34;;;;;;;18.85;8.93;;;10.10;99.90;;;;;;5116355;27;20130;-76
2022/12/20 13:06:22;;;;;;;19.92;8.43;;;10.10;99.90;;;;;;5116937;27;20035;-77
2022/12/20 13:08:55;;;;;;;16.58;7.80;;;10.10;99.90;;;;;;5116562;27;20071;-73
2022/12/20 13:11:33;;;;;;;17.38;8.02;;;10.10;99.90;;;;;;5116910;27;20078;-76
2022/12/20 13:14:17;;;;;;;17.13;7.88;;;10.10;99.90;;;;;;5120139;27;20051;-76